^^
Datos históricos de la estación: Murcia-Puente Tocinos
Diario Informe para Mayo 17, 2021 Unidades:  Ingés    Métrico   Ambas
Diario Semanal Mensual Anual
  Máxima: Mínima: Promedio:
Temperatura: 81.7 °F 64.9 °F 74.3 °F
Punto de rocio: 60.8 °F 48.6 °F 56.3 °F
Humedad: 81% 35% 55%
Velocidad viento: 14.7mph 2.9mph 7.4mph
Racha viento: 30mph - -
Viento- - SE
Presión: 30.1 in 29.9 in -
Precipitación: 0 in    
 
 
Tabla de datos para Mayo 17, 2021
Hora Temperatura Punto de rocio Presión Viento Velocidad viento Racha viento Humedad Intensidad lluvia(por hora) Nubes
00:04 78.4 °F 48.6 °F 29.9 in SSO 4.7 mph 8.5 mph 35% 0 in
00:09 78.4 °F 48.6 °F 29.9 in Sur 5 mph 9 mph 35.2% 0 in
00:14 78.3 °F 49.1 °F 29.9 in Sur 5.2 mph 8.1 mph 36% 0 in
00:19 78.1 °F 48.9 °F 29.9 in SSO 5.2 mph 6.9 mph 36% 0 in
00:24 78.1 °F 48.9 °F 29.9 in SO 5.2 mph 7.4 mph 36% 0 in
00:29 77.9 °F 49.1 °F 29.9 in SSO 4.6 mph 7 mph 36.6% 0 in
00:34 77.7 °F 49.5 °F 29.9 in SO 4 mph 7 mph 37% 0 in
00:39 77.7 °F 49.5 °F 29.9 in SO 3.8 mph 6 mph 37% 0 in
00:44 77.5 °F 49.3 °F 29.9 in SO 3.6 mph 5.8 mph 37% 0 in
00:49 77.5 °F 49.1 °F 29.9 in Sur 3.4 mph 6 mph 37% 0 in
00:54 77.2 °F 49.6 °F 29.9 in ESE 3.1 mph 6.9 mph 38.2% 0 in
00:59 76.3 °F 49.8 °F 29.9 in SE 3.6 mph 7 mph 39.4% 0 in
01:04 75.7 °F 49.8 °F 29.9 in SSE 4 mph 7 mph 40% 0 in
01:09 75.7 °F 49.6 °F 29.9 in Sur 4 mph 6 mph 40% 0 in
01:14 75.7 °F 49.6 °F 29.9 in SSO 4 mph 6.9 mph 39.8% 0 in
01:19 75.9 °F 49.3 °F 29.9 in SSO 4 mph 7 mph 39.1% 0 in
01:24 76.3 °F 49.5 °F 29.9 in SO 4 mph 6 mph 39% 0 in
01:29 76.3 °F 49.5 °F 29.9 in Sur 3.9 mph 6 mph 39% 0 in
01:30 76.3 °F 49.5 °F 29.9 in Sur 3.5 mph 6 mph 39% 0 in
01:39 76.3 °F 49.8 °F 29.9 in SSE 3.8 mph 6 mph 39.6% 0 in
01:44 75.9 °F 50 °F 29.9 in SE 4 mph 7.4 mph 40% 0 in
01:49 75.7 °F 49.6 °F 29.9 in SE 4.6 mph 8.1 mph 40% 0 in
01:54 75.7 °F 49.3 °F 29.9 in SE 5.2 mph 8 mph 39.3% 0 in
01:59 76.3 °F 49.3 °F 29.9 in SE 5.3 mph 8.1 mph 38.8% 0 in
02:04 76.6 °F 49.1 °F 29.9 in SSE 5.4 mph 8.1 mph 38% 0 in
02:09 77.2 °F 49.5 °F 29.9 in SSE 4.7 mph 7 mph 38% 0 in
02:14 77.4 °F 49.5 °F 29.9 in Sur 4 mph 6.9 mph 37.5% 0 in
02:19 77.7 °F 49.3 °F 29.9 in SSE 3.8 mph 7 mph 37% 0 in
02:24 77.9 °F 49.5 °F 29.9 in SO 3.6 mph 5 mph 37% 0 in
02:29 78.1 °F 49.6 °F 29.9 in Sur 3.3 mph 5.2 mph 37% 0 in
02:34 77.7 °F 49.5 °F 29.9 in Sur 2.9 mph 6.2 mph 37% 0 in
02:39 77.4 °F 49.1 °F 29.9 in Sur 3.7 mph 6.9 mph 37.1% 0 in
02:44 77.4 °F 49.5 °F 29.9 in SSO 4.7 mph 8.1 mph 37.5% 0 in
02:49 78.1 °F 49.6 °F 29.9 in SSO 4.7 mph 8.1 mph 37% 0 in
02:54 78.8 °F 49.8 °F 29.9 in SSO 4.7 mph 8.1 mph 36.3% 0 in
02:59 79.3 °F 50.2 °F 29.9 in SSO 5 mph 8.5 mph 36% 0 in
03:04 79.5 °F 50.2 °F 29.9 in OSO 5.2 mph 9 mph 36% 0 in
03:09 79.5 °F 50.2 °F 29.9 in Oeste 4.6 mph 7.4 mph 36% 0 in
03:14 79.5 °F 50.2 °F 29.9 in SO 4 mph 7 mph 35.8% 0 in
03:19 79.3 °F 50.2 °F 29.9 in OSO 3.5 mph 6.9 mph 36% 0 in
03:24 79 °F 50 °F 29.9 in Oeste 3.1 mph 7 mph 36.5% 0 in
03:29 78.4 °F 50 °F 29.9 in Oeste 3.7 mph 7 mph 37% 0 in
03:34 78.3 °F 50 °F 29.9 in Oeste 4.3 mph 5.9 mph 37.3% 0 in
03:39 77.7 °F 50.2 °F 29.9 in OSO 3.7 mph 6 mph 38% 0 in
03:44 77.5 °F 49.8 °F 29.9 in Oeste 3.1 mph 8.1 mph 38% 0 in
03:49 77.5 °F 49.8 °F 29.9 in OSO 3.4 mph 8 mph 38% 0 in
03:54 77.4 °F 49.8 °F 29.9 in SO 3.6 mph 8.1 mph 38% 0 in
03:59 77.2 °F 50 °F 29.9 in SO 4 mph 8 mph 38.6% 0 in
04:04 77 °F 50.2 °F 29.9 in SO 4.3 mph 7 mph 39% 0 in
04:09 77 °F 50.2 °F 29.9 in SO 4.3 mph 7 mph 39% 0 in
04:14 77 °F 50.2 °F 29.9 in SSO 4.3 mph 7 mph 39% 0 in
04:19 77 °F 50.2 °F 29.9 in SSO 4 mph 6 mph 39% 0 in
04:24 76.6 °F 49.8 °F 29.9 in SSE 3.6 mph 6.9 mph 38.8% 0 in
04:29 76.5 °F 49.6 °F 29.9 in Sur 4 mph 8.1 mph 39% 0 in
04:34 76.5 °F 49.8 °F 29.9 in OSO 4.3 mph 8 mph 39.3% 0 in
04:39 76.5 °F 49.8 °F 29.9 in SSO 4 mph 8.1 mph 39% 0 in
04:44 76.6 °F 50 °F 29.9 in SO 3.6 mph 8.5 mph 39.2% 0 in
04:49 76.6 °F 49.8 °F 29.9 in Sur 3.8 mph 9 mph 39% 0 in
04:54 76.6 °F 50 °F 29.9 in Sur 4 mph 7 mph 39.3% 0 in
04:59 76.6 °F 50.4 °F 29.9 in SSO 3.8 mph 7 mph 40% 0 in
05:04 76.6 °F 50.5 °F 29.9 in SSO 3.6 mph 6.2 mph 40% 0 in
05:09 76.5 °F 50.4 °F 29.9 in SSO 3.6 mph 6 mph 40% 0 in
05:14 76.3 °F 49.8 °F 29.9 in SSO 3.6 mph 8.1 mph 39.5% 0 in
05:19 75.9 °F 49.1 °F 29.9 in SSO 3.9 mph 8.1 mph 38.8% 0 in
05:24 75.6 °F 49.1 °F 29.9 in SSO 4.3 mph 9.2 mph 39.4% 0 in
05:29 75.6 °F 49.5 °F 29.9 in SSO 5.2 mph 9.2 mph 40% 0 in
05:34 75.6 °F 50.2 °F 29.9 in SO 5.9 mph 10.7 mph 40.9% 0 in
05:39 75.6 °F 51.3 °F 29.9 in SO 6.5 mph 11.5 mph 42.5% 0 in
05:44 75.6 °F 51.4 °F 29.9 in SO 6.9 mph 12.7 mph 43% 0 in
05:49 75.6 °F 51.6 °F 29.9 in SO 7.5 mph 13 mph 43.3% 0 in
05:54 75.4 °F 52.3 °F 29.9 in SO 8.1 mph 12 mph 44.7% 0 in
05:59 75.4 °F 53.2 °F 29.9 in OSO 7.7 mph 12 mph 46% 0 in
06:04 75.4 °F 53.8 °F 29.9 in SO 7.4 mph 14 mph 47% 0 in
06:09 75.4 °F 53.8 °F 29.9 in OSO 7.7 mph 14 mph 47% 0 in
06:14 75.4 °F 54 °F 29.9 in OSO 8.1 mph 13.5 mph 47.5% 0 in
06:19 75.2 °F 54.7 °F 29.9 in OSO 7.8 mph 14 mph 48.9% 0 in
06:24 75.2 °F 54.7 °F 29.9 in OSO 7.4 mph 10.2 mph 49.2% 0 in
06:29 75 °F 55 °F 29.9 in OSO 6.8 mph 13.8 mph 50% 0 in
06:34 75 °F 55 °F 29.9 in OSO 6.2 mph 14 mph 50% 0 in
06:39 75 °F 55.6 °F 29.9 in OSO 6.5 mph 11.5 mph 50.7% 0 in
06:44 75 °F 55.8 °F 29.9 in OSO 6.9 mph 11.8 mph 51% 0 in
06:49 75 °F 55.8 °F 29.9 in OSO 6.6 mph 12.7 mph 51% 0 in
06:54 75 °F 55.9 °F 29.9 in OSO 6.4 mph 13 mph 51.5% 0 in
06:59 74.8 °F 56.1 °F 29.9 in OSO 6.4 mph 12 mph 52% 0 in
07:04 74.8 °F 56.5 °F 29.9 in OSO 6.4 mph 11.5 mph 52.8% 0 in
07:09 74.8 °F 56.7 °F 29.9 in OSO 6.3 mph 15 mph 53% 0 in
07:14 74.8 °F 56.7 °F 29.9 in OSO 6.2 mph 15 mph 53% 0 in
07:19 74.8 °F 56.7 °F 29.9 in OSO 6.2 mph 12.7 mph 53% 0 in
07:24 75 °F 56.7 °F 29.9 in OSO 6.2 mph 13 mph 53% 0 in
07:29 75 °F 56.7 °F 29.9 in OSO 6.5 mph 13 mph 53% 0 in
07:34 75 °F 56.7 °F 29.9 in OSO 6.9 mph 13 mph 53% 0 in
07:39 75 °F 57 °F 29.9 in OSO 6.9 mph 13 mph 53.6% 0 in
07:44 75 °F 57.4 °F 29.9 in Oeste 6.9 mph 13.5 mph 54% 0 in
07:49 75 °F 57.2 °F 29.9 in Oeste 6.6 mph 14 mph 54% 0 in
07:54 75.2 °F 57.4 °F 29.9 in ONO 6.4 mph 14 mph 54% 0 in
07:59 75.4 °F 57.6 °F 29.9 in ONO 5.8 mph 9.2 mph 54% 0 in
08:04 75.6 °F 57.6 °F 29.9 in NNO 5.2 mph 9 mph 53.7% 0 in
08:09 75.7 °F 57.7 °F 29.9 in NO 4.2 mph 5 mph 53.6% 0 in
08:14 75.9 °F 57.6 °F 29.9 in Oeste 3.1 mph 10.2 mph 53% 0 in
08:19 75.9 °F 57.6 °F 29.9 in Oeste 3.4 mph 12.7 mph 53% 0 in
08:24 75.9 °F 57.6 °F 29.9 in Oeste 3.6 mph 15 mph 53% 0 in
08:29 75.9 °F 57.6 °F 29.9 in OSO 5.3 mph 15 mph 53% 0 in
08:34 76.1 °F 57.7 °F 29.9 in OSO 7.4 mph 12 mph 53% 0 in
08:39 76.3 °F 57.9 °F 29.9 in Oeste 6.3 mph 9.7 mph 53% 0 in
08:44 76.5 °F 57.7 °F 29.9 in Oeste 5.2 mph 10 mph 52.7% 0 in
08:49 76.5 °F 57.6 °F 29.9 in Oeste 5.2 mph 13 mph 52% 0 in
08:54 76.6 °F 57.7 °F 29.9 in Oeste 5.2 mph 13 mph 52% 0 in
08:59 76.8 °F 57.9 °F 29.9 in Oeste 5.6 mph 10.4 mph 52% 0 in
09:04 77 °F 57.9 °F 29.9 in ONO 5.9 mph 10.4 mph 51.8% 0 in
09:09 77 °F 57.9 °F 29.9 in ONO 6.4 mph 13.8 mph 51.8% 0 in
09:14 77.4 °F 57.9 °F 29.9 in ONO 6.9 mph 15 mph 51.3% 0 in
09:19 77.4 °F 57.7 °F 29.9 in ONO 6.9 mph 15 mph 51% 0 in
09:24 77.4 °F 57.7 °F 29.9 in Oeste 6.9 mph 14 mph 51% 0 in
09:29 77.5 °F 57.9 °F 29.9 in Oeste 7.5 mph 14 mph 51% 0 in
09:34 77.7 °F 57.7 °F 29.9 in Oeste 8.1 mph 15 mph 50.1% 0 in
09:39 77.7 °F 57.7 °F 29.9 in ONO 7.8 mph 15 mph 50% 0 in
09:44 78.1 °F 57.9 °F 30 in Oeste 7.6 mph 16.1 mph 50% 0 in
09:49 77.9 °F 57.7 °F 30 in Oeste 8.1 mph 16 mph 50% 0 in
09:54 78.1 °F 57.9 °F 30 in Oeste 8.7 mph 13.5 mph 50% 0 in
09:59 78.3 °F 58.1 °F 30 in ONO 8.1 mph 14 mph 50% 0 in
10:04 78.3 °F 57.7 °F 30 in ONO 7.6 mph 14 mph 49.4% 0 in
10:09 78.4 °F 57.7 °F 30 in ONO 7.8 mph 13 mph 49% 0 in
10:14 79 °F 57.9 °F 30 in Oeste 8.1 mph 13.8 mph 48.8% 0 in
10:19 79 °F 57.6 °F 30 in Oeste 8.1 mph 14 mph 48% 0 in
10:24 79.2 °F 57.9 °F 30 in ONO 8.1 mph 13 mph 48.4% 0 in
10:29 79.3 °F 57.9 °F 30 in NNO 7.2 mph 12 mph 48% 0 in
10:34 79.9 °F 58.1 °F 30 in ONO 6.4 mph 12 mph 47.7% 0 in
10:39 80.2 °F 58.1 °F 30 in ONO 5.2 mph 11.5 mph 47% 0 in
10:44 80.2 °F 58.1 °F 30 in NNO 4 mph 12 mph 47% 0 in
10:49 80.2 °F 58.5 °F 30 in North 4.7 mph 10.4 mph 47.5% 0 in
10:54 80.2 °F 58.6 °F 30 in North 5.4 mph 10.4 mph 47.7% 0 in
10:59 80.2 °F 58.5 °F 30 in NNE 5.8 mph 11.5 mph 47.6% 0 in
11:04 80.4 °F 58.6 °F 30 in NNO 6.2 mph 12 mph 47.4% 0 in
11:09 80.8 °F 58.6 °F 30 in NNE 6 mph 13.8 mph 47% 0 in
11:14 80.8 °F 58.3 °F 30 in NNE 5.9 mph 14 mph 46.5% 0 in
11:19 80.8 °F 58.1 °F 30 in NNE 6.2 mph 12 mph 45.9% 0 in
11:24 81 °F 58.3 °F 30 in NNE 6.4 mph 11.5 mph 46% 0 in
11:29 81.3 °F 58.5 °F 30 in NNE 5.8 mph 12 mph 45.8% 0 in
11:34 81.7 °F 58.3 °F 30 in NNE 5.2 mph 14 mph 45% 0 in
11:39 81.5 °F 57.7 °F 30 in NNO 6 mph 15 mph 44.4% 0 in
11:44 81.3 °F 58.6 °F 30 in NNE 6.9 mph 15.2 mph 46.1% 0 in
11:49 81.1 °F 60.6 °F 30 in NE 7.5 mph 17.3 mph 49.8% 0 in
11:54 80.8 °F 60.4 °F 30 in NE 8.1 mph 17 mph 50.2% 0 in
11:59 79.7 °F 60.4 °F 30 in NE 9.4 mph 21.3 mph 51.9% 0 in
12:04 79.2 °F 60.4 °F 30 in NE 10.7 mph 21 mph 53% 0 in
12:09 78.8 °F 60.6 °F 30 in NNE 10.7 mph 19 mph 53.9% 0 in
12:14 78.4 °F 60.6 °F 30 in NE 10.7 mph 21.3 mph 54.4% 0 in
12:19 78.4 °F 60.8 °F 30 in NNE 11 mph 21 mph 54.5% 0 in
12:24 78.3 °F 60.8 °F 30 in NE 11.4 mph 20 mph 55% 0 in
12:29 78.3 °F 60.8 °F 30 in NE 11.3 mph 22.5 mph 55.2% 0 in
12:34 77.7 °F 60.6 °F 30 in NE 11.2 mph 23 mph 55.7% 0 in
12:39 77.4 °F 60.4 °F 30 in NNE 11.9 mph 23 mph 56% 0 in
12:44 76.6 °F 60.3 °F 30 in NE 12.5 mph 23 mph 56.9% 0 in
12:49 76.6 °F 60.4 °F 30 in NE 13.5 mph 22 mph 57.2% 0 in
12:54 76.6 °F 60.3 °F 30 in NE 14.5 mph 25.6 mph 57.1% 0 in
12:59 76.3 °F 60.4 °F 30 in NE 13.7 mph 26 mph 57.9% 0 in
13:04 76.6 °F 60.1 °F 30 in NE 13 mph 24 mph 56.7% 0 in
13:09 76.6 °F 60.3 °F 30 in NE 12.2 mph 23.7 mph 57% 0 in
13:14 76.3 °F 59.9 °F 30 in NE 11.4 mph 26.5 mph 57% 0 in
13:19 75.7 °F 59.7 °F 30 in NE 12.6 mph 26 mph 57.7% 0 in
13:24 75.4 °F 59.5 °F 30 in NE 13.7 mph 25 mph 57.9% 0 in
13:29 75.4 °F 59.5 °F 30 in NE 14.2 mph 24.2 mph 57.8% 0 in
13:34 75.6 °F 59.4 °F 30 in NE 14.7 mph 23 mph 57.3% 0 in
13:39 75.6 °F 59.7 °F 30 in NE 14.2 mph 23 mph 58% 0 in
13:44 75.6 °F 59.9 °F 30 in NE 13.7 mph 28.8 mph 58.2% 0 in
13:49 75.4 °F 59.7 °F 30 in NE 13.9 mph 29 mph 58.3% 0 in
13:54 75.4 °F 59.7 °F 30 in NNE 14 mph 24.2 mph 58.2% 0 in
13:59 75 °F 59.5 °F 30 in NE 14.3 mph 27.6 mph 58.7% 0 in
14:04 74.7 °F 59.4 °F 30 in NE 14.5 mph 28 mph 59% 0 in
14:09 74.7 °F 59.4 °F 30 in NE 14.2 mph 25 mph 59% 0 in
14:14 74.7 °F 59.4 °F 30 in NE 14 mph 24.6 mph 58.9% 0 in
14:19 75 °F 59.2 °F 30 in NE 13.5 mph 25.6 mph 58.1% 0 in
14:24 75 °F 59.2 °F 30 in NE 13 mph 26 mph 58% 0 in
14:29 75 °F 59.2 °F 30 in NE 12.7 mph 23 mph 58% 0 in
14:34 74.7 °F 59 °F 30 in NE 12.3 mph 24.2 mph 58.2% 0 in
14:39 74.7 °F 59.2 °F 30 in NE 12.7 mph 29.4 mph 58.3% 0 in
14:44 74.5 °F 59.2 °F 30 in NE 13 mph 30 mph 59% 0 in
14:49 74.3 °F 59.5 °F 30 in NE 13.4 mph 25 mph 60.1% 0 in
14:54 74.5 °F 59 °F 30 in NE 13.7 mph 26.8 mph 58.9% 0 in
14:59 73.9 °F 58.8 °F 30 in NE 13.9 mph 27 mph 59.5% 0 in
15:04 73.6 °F 58.8 °F 30 in NE 14 mph 23.5 mph 59.9% 0 in
15:09 73.6 °F 59 °F 30 in NE 13.7 mph 24.6 mph 60.5% 0 in
15:14 73.6 °F 59 °F 30 in NE 13.5 mph 25 mph 60.4% 0 in
15:19 73.6 °F 59.2 °F 30 in NE 13.5 mph 25.3 mph 61% 0 in
15:24 73.6 °F 59.4 °F 30 in NE 13.5 mph 25 mph 61.3% 0 in
15:29 73.2 °F 59.4 °F 30 in NE 13.6 mph 28.8 mph 61.8% 0 in
15:34 73 °F 59.7 °F 30 in NE 13.7 mph 29 mph 62.9% 0 in
15:39 73 °F 59.2 °F 30 in NE 13.9 mph 23 mph 61.9% 0 in
15:44 73.2 °F 59.4 °F 30 in NNE 14 mph 23.5 mph 62% 0 in
15:49 73.2 °F 59.7 °F 30 in NE 13.3 mph 23 mph 62.5% 0 in
15:54 73.6 °F 59.7 °F 30 in NE 12.5 mph 21 mph 62.1% 0 in
15:59 73.8 °F 59.7 °F 30 in NE 11.9 mph 23 mph 61.4% 0 in
16:04 73.9 °F 59.4 °F 30 in NE 11.4 mph 23 mph 60.4% 0 in
16:09 73.4 °F 59 °F 30 in NNE 11.6 mph 25.3 mph 60.5% 0 in
16:14 72.9 °F 59 °F 30 in NE 11.8 mph 25.6 mph 61.7% 0 in
16:19 72.7 °F 59.2 °F 30 in NE 12.7 mph 26 mph 62.7% 0 in
16:24 72.7 °F 59.4 °F 30 in NE 13.7 mph 23 mph 62.9% 0 in
16:29 72.7 °F 59.4 °F 30 in NE 11.8 mph 18 mph 63% 0 in
16:34 72.7 °F 59.4 °F 30 in NE 10 mph 20.1 mph 63.1% 0 in
16:39 72.7 °F 59.4 °F 30 in NE 10.3 mph 21 mph 63.2% 0 in
16:44 72.3 °F 59 °F 30 in NE 10.7 mph 21 mph 63% 0 in
16:49 72.3 °F 59.5 °F 30 in NE 10.4 mph 21 mph 64% 0 in
16:54 72.1 °F 59.4 °F 30 in NE 10.2 mph 19.7 mph 64% 0 in
16:59 71.8 °F 59.4 °F 30 in NE 10.2 mph 20 mph 65.1% 0 in
17:04 72 °F 59.5 °F 30 in ENE 10.2 mph 17.8 mph 65% 0 in
17:09 72 °F 59.4 °F 30 in NE 9.5 mph 21.3 mph 64.7% 0 in
17:14 72 °F 59.4 °F 30 in NNE 8.7 mph 21 mph 64.5% 0 in
17:19 72.1 °F 59.5 °F 30 in NE 9.8 mph 19 mph 64.4% 0 in
17:24 72.1 °F 59.4 °F 30 in NE 10.7 mph 19.7 mph 64.2% 0 in
17:29 72 °F 59.7 °F 30 in NNE 10.9 mph 20 mph 65.3% 0 in
17:34 72.1 °F 59.4 °F 30 in NE 11.2 mph 16.1 mph 64.4% 0 in
17:39 72 °F 59.4 °F 30 in NE 10 mph 18.4 mph 64.6% 0 in
17:44 71.8 °F 59.4 °F 30 in NNE 8.7 mph 20.7 mph 65.2% 0 in
17:49 71.4 °F 59.2 °F 30 in NE 9.8 mph 21 mph 65.3% 0 in
17:54 71.4 °F 59.4 °F 30 in NE 10.7 mph 17.3 mph 66% 0 in
17:59 71.1 °F 59.4 °F 30 in NE 10.4 mph 17.5 mph 66.4% 0 in
18:04 71.1 °F 59.5 °F 30 in NE 10.2 mph 19.6 mph 67% 0 in
18:09 70.9 °F 59.4 °F 30 in NE 9.4 mph 20 mph 67% 0 in
18:14 70.9 °F 59.4 °F 30 in NE 8.5 mph 18.5 mph 67% 0 in
18:19 70.5 °F 59.2 °F 30 in NE 8.6 mph 19 mph 67.3% 0 in
18:24 70.3 °F 59.2 °F 30 in NE 8.7 mph 18.5 mph 67.7% 0 in
18:29 70.2 °F 59.2 °F 30 in NE 8.7 mph 19 mph 68% 0 in
18:34 70.2 °F 59 °F 30 in NE 8.7 mph 17.5 mph 67.9% 0 in
18:39 70.2 °F 58.6 °F 30 in NE 8.9 mph 17.3 mph 67% 0 in
18:44 70.3 °F 59 °F 30 in NE 9.2 mph 17 mph 67.3% 0 in
18:49 70.5 °F 59 °F 30 in NE 8.9 mph 16 mph 67.2% 0 in
18:54 70.5 °F 58.6 °F 30 in NE 8.7 mph 15.2 mph 66.1% 0 in
18:59 70.3 °F 58.6 °F 30 in NNE 8.9 mph 16.1 mph 66.7% 0 in
19:04 70.2 °F 58.6 °F 30 in NE 9.2 mph 16.1 mph 67% 0 in
19:09 70.2 °F 59 °F 30 in NE 8.7 mph 16 mph 67.6% 0 in
19:14 70 °F 58.8 °F 30 in NE 8.1 mph 15 mph 67.5% 0 in
19:19 69.8 °F 58.8 °F 30 in ENE 8.1 mph 15 mph 68.1% 0 in
19:24 69.6 °F 58.6 °F 30 in NE 8.1 mph 15 mph 68% 0 in
19:29 69.6 °F 58.6 °F 30 in NNE 7.7 mph 14 mph 68% 0 in
19:34 69.6 °F 58.6 °F 30 in NE 7.4 mph 13 mph 68% 0 in
19:39 69.8 °F 58.5 °F 30 in NE 7.1 mph 13.8 mph 67.4% 0 in
19:44 70 °F 58.6 °F 30 in NE 6.9 mph 16.1 mph 67.5% 0 in
19:49 69.6 °F 58.6 °F 30 in NE 7.6 mph 16 mph 68% 0 in
19:54 69.6 °F 58.6 °F 30 in NNE 8.5 mph 16.1 mph 68% 0 in
19:59 69.4 °F 58.6 °F 30 in ENE 8.6 mph 16.3 mph 68.7% 0 in
20:04 69.3 °F 58.5 °F 30 in NE 8.7 mph 16.1 mph 68.3% 0 in
20:09 69.3 °F 58.6 °F 30 in NE 8.2 mph 16 mph 69% 0 in
20:14 69.3 °F 59 °F 30 in NE 7.6 mph 13 mph 69.6% 0 in
20:19 69.3 °F 59 °F 30 in NE 7.5 mph 13 mph 69.7% 0 in
20:24 69.1 °F 58.6 °F 30 in NE 7.4 mph 13 mph 69% 0 in
20:29 69.1 °F 58.5 °F 30 in NE 7.1 mph 13 mph 69% 0 in
20:34 69.1 °F 58.5 °F 30 in NE 6.9 mph 13 mph 69% 0 in
20:39 69.1 °F 58.5 °F 30 in NE 6.5 mph 13 mph 69% 0 in
20:44 68.7 °F 58.5 °F 30 in NE 6.2 mph 13 mph 69.5% 0 in
20:49 68.5 °F 58.1 °F 30 in NNE 6.8 mph 13 mph 69% 0 in
20:54 68.5 °F 57.9 °F 30 in NE 7.6 mph 13 mph 69% 0 in
20:59 68.5 °F 57.9 °F 30 in NE 6.9 mph 10 mph 69% 0 in
21:04 68.4 °F 58.3 °F 30 in NE 6.2 mph 10.4 mph 70% 0 in
21:09 68.2 °F 58.1 °F 30 in NE 6.2 mph 10.7 mph 70% 0 in
21:14 68.2 °F 57.9 °F 30 in NE 6.2 mph 11 mph 70% 0 in
21:19 68 °F 58.1 °F 30 in ENE 5.4 mph 10.4 mph 70.8% 0 in
21:24 67.8 °F 58.1 °F 30 in NE 4.7 mph 10 mph 71% 0 in
21:29 67.8 °F 58.1 °F 30.1 in NE 4.3 mph 9.7 mph 71% 0 in
21:34 67.6 °F 58.1 °F 30.1 in NE 4 mph 10 mph 71.5% 0 in
21:39 67.6 °F 58.1 °F 30.1 in NE 4.3 mph 9.7 mph 71.8% 0 in
21:44 67.5 °F 58.1 °F 30.1 in ENE 4.7 mph 10 mph 72% 0 in
21:49 67.5 °F 58.3 °F 30.1 in ENE 4.5 mph 9 mph 72.4% 0 in
21:54 67.3 °F 58.3 °F 30.1 in NE 4.3 mph 7.4 mph 73% 0 in
21:59 67.1 °F 58.1 °F 30.1 in NE 4.3 mph 9.7 mph 73% 0 in
22:04 66.9 °F 58.3 °F 30.1 in ENE 4.3 mph 10 mph 73.9% 0 in
22:09 66.9 °F 58.5 °F 30.1 in ENE 4.3 mph 9 mph 74% 0 in
22:14 66.9 °F 58.3 °F 30.1 in ENE 4.3 mph 8.1 mph 74% 0 in
22:19 66.7 °F 58.3 °F 30.1 in NE 4 mph 8 mph 74.1% 0 in
22:24 66.6 °F 58.5 °F 30.1 in NE 3.6 mph 7.4 mph 75% 0 in
22:29 66.6 °F 58.5 °F 30.1 in NE 3.8 mph 7 mph 75% 0 in
22:34 66.6 °F 58.5 °F 30.1 in NNE 4 mph 6.9 mph 75% 0 in
22:39 66.4 °F 58.5 °F 30.1 in NE 3.8 mph 7 mph 75.6% 0 in
22:44 66.4 °F 58.5 °F 30.1 in NNE 3.6 mph 8.1 mph 76% 0 in
22:49 66.2 °F 58.5 °F 30.1 in NE 3.9 mph 8 mph 76.5% 0 in
22:54 66 °F 58.6 °F 30.1 in NE 4.3 mph 7 mph 77% 0 in
22:59 66 °F 58.6 °F 30.1 in NNE 4.2 mph 7.6 mph 77% 0 in
23:04 65.8 °F 58.8 °F 30.1 in NE 4 mph 8.1 mph 78% 0 in
23:09 65.8 °F 58.8 °F 30.1 in NE 4.3 mph 8.1 mph 78% 0 in
23:14 65.7 °F 58.6 °F 30.1 in NNE 4.7 mph 9.2 mph 78.2% 0 in
23:19 65.7 °F 59 °F 30.1 in NE 5 mph 9.2 mph 79% 0 in
23:24 65.5 °F 58.8 °F 30.1 in NNE 5.2 mph 8.1 mph 79% 0 in
23:29 65.3 °F 58.6 °F 30.1 in NNE 5.2 mph 8.1 mph 79% 0 in
23:34 65.1 °F 58.8 °F 30.1 in NNE 5.2 mph 8.1 mph 79.8% 0 in
23:39 65.1 °F 58.8 °F 30.1 in NNE 5.3 mph 8 mph 80% 0 in
23:44 65.1 °F 58.8 °F 30.1 in NNE 5.4 mph 8.1 mph 80% 0 in
23:49 64.9 °F 58.6 °F 30.1 in NNE 5.3 mph 8.1 mph 80% 0 in
23:54 64.9 °F 58.6 °F 30.1 in NE 5.2 mph 8 mph 80% 0 in
23:59 64.9 °F 58.8 °F 30.1 in NNE 4.7 mph 7 mph 81% 0 in
Murcia-Puente Tocinos, España
Compliments of Weather Underground - 3 mb

La estación de MeteoMurcia.com, publica sus datos en los siguientes proyectos:

Weather Underground PWS IMURCIAP2 Meteoclimatic www.awekas.at

W3Counter
Web Analytics